Time;durP1;ratioP1;P1;durP2;ratioP2;P2;SDS_P1;SDS_P2;PMS_P1;PMS_P2;Temp;Humidity;BMP_temperature;BMP_pressure;BME280_temperature;BME280_humidity;BME280_pressure;Samples;Min_cycle;Max_cycle;Signal;HPM_P1;HPM_P2
2022/05/31 00:00:04;;;;;;;1.97;1.27;;;;;;;;;;5098025;28;20307;-70
2022/05/31 00:02:32;;;;;;;1.87;1.60;;;;;;;;;;5102642;28;20661;-71
2022/05/31 00:05:00;;;;;;;3.33;1.50;;;;;;;;;;5100407;28;20206;-70
2022/05/31 00:07:29;;;;;;;1.40;1.30;;;;;;;;;;5100025;28;20230;-71
2022/05/31 00:09:58;;;;;;;1.40;1.30;;;;;;;;;;5100157;28;20680;-70
2022/05/31 00:12:27;;;;;;;3.50;1.97;;;;;;;;;;5100542;28;20212;-70
2022/05/31 00:14:55;;;;;;;2.83;1.30;;;;;;;;;;5099931;28;20222;-69
2022/05/31 00:17:24;;;;;;;1.77;1.63;;;;;;;;;;5099109;28;20712;-69
2022/05/31 00:19:52;;;;;;;4.03;1.83;;;;;;;;;;5099778;28;20197;-71
2022/05/31 00:22:21;;;;;;;2.30;1.60;;;;;;;;;;5101430;28;20225;-70
2022/05/31 00:24:49;;;;;;;2.27;1.43;;;;;;;;;;5102531;28;20236;-71
2022/05/31 00:27:22;;;;;;;2.60;1.60;;;;;;;;;;5099284;28;20573;-70
2022/05/31 00:29:50;;;;;;;1.97;1.27;;;;;;;;;;5098867;28;20202;-69
2022/05/31 00:32:21;;;;;;;3.30;1.60;;;;;;;;;;5101169;28;20279;-70
2022/05/31 00:34:50;;;;;;;1.63;1.37;;;;;;;;;;5100632;28;20198;-71
2022/05/31 00:37:19;;;;;;;2.07;1.20;;;;;;;;;;5108103;28;20814;-70
2022/05/31 00:39:47;;;;;;;2.30;1.50;;;;;;;;;;5105523;28;20555;-71
2022/05/31 00:42:17;;;;;;;2.53;1.50;;;;;;;;;;5108592;28;20221;-70
2022/05/31 00:44:47;;;;;;;1.37;1.23;;;;;;;;;;5108133;28;20746;-71
2022/05/31 00:47:17;;;;;;;2.53;1.53;;;;;;;;;;5101961;28;20221;-70
2022/05/31 00:49:48;;;;;;;3.23;1.47;;;;;;;;;;5100681;28;20668;-70
2022/05/31 00:52:20;;;;;;;2.27;1.50;;;;;;;;;;5109163;28;20228;-71
2022/05/31 00:54:50;;;;;;;1.37;1.27;;;;;;;;;;5119889;28;20300;-71
2022/05/31 00:57:18;;;;;;;4.03;1.37;;;;;;;;;;5119680;28;20274;-71
2022/05/31 00:59:50;;;;;;;2.10;1.00;;;;;;;;;;5119553;28;20655;-71
2022/05/31 01:02:18;;;;;;;2.43;1.37;;;;;;;;;;5119816;28;20226;-70
2022/05/31 01:04:48;;;;;;;2.87;1.20;;;;;;;;;;5119552;28;20232;-70
2022/05/31 01:07:16;;;;;;;1.17;1.13;;;;;;;;;;5119588;28;20236;-70
2022/05/31 01:09:44;;;;;;;3.17;1.40;;;;;;;;;;5119602;28;20260;-71
2022/05/31 01:12:14;;;;;;;1.57;1.27;;;;;;;;;;5119132;27;20213;-69
2022/05/31 01:14:42;;;;;;;1.23;1.13;;;;;;;;;;5119674;28;20261;-71
2022/05/31 01:17:14;;;;;;;4.67;1.40;;;;;;;;;;5102613;28;20217;-70
2022/05/31 01:19:59;;;;;;;1.70;1.37;;;;;;;;;;5099173;28;20197;-71
2022/05/31 01:22:33;;;;;;;2.00;0.90;;;;;;;;;;5099052;28;20296;-70
2022/05/31 01:25:05;;;;;;;1.70;1.60;;;;;;;;;;5098824;28;20660;-71
2022/05/31 01:27:40;;;;;;;4.40;1.57;;;;;;;;;;5098765;28;20237;-70
2022/05/31 01:30:09;;;;;;;3.63;1.40;;;;;;;;;;5095965;28;20260;-72
2022/05/31 01:32:40;;;;;;;3.83;1.43;;;;;;;;;;5098184;28;20206;-71
2022/05/31 01:35:09;;;;;;;1.40;1.13;;;;;;;;;;5098448;28;20676;-71
2022/05/31 01:37:45;;;;;;;2.57;1.40;;;;;;;;;;5098789;28;20294;-71
2022/05/31 01:40:16;;;;;;;2.47;1.50;;;;;;;;;;5098602;28;20232;-72
2022/05/31 01:42:46;;;;;;;3.00;1.40;;;;;;;;;;5098387;28;20236;-71
2022/05/31 01:45:16;;;;;;;1.83;1.37;;;;;;;;;;5098618;28;20243;-71
2022/05/31 01:47:44;;;;;;;3.50;1.50;;;;;;;;;;5098443;28;20241;-70
2022/05/31 01:50:14;;;;;;;2.23;1.40;;;;;;;;;;5098445;28;20225;-71
2022/05/31 01:52:44;;;;;;;2.23;1.50;;;;;;;;;;5098298;28;20206;-71
2022/05/31 01:55:12;;;;;;;1.40;1.30;;;;;;;;;;5098146;28;20237;-72
2022/05/31 01:57:41;;;;;;;3.60;1.40;;;;;;;;;;5098060;28;20266;-71
2022/05/31 02:00:11;;;;;;;2.13;1.50;;;;;;;;;;5098269;28;20233;-70
2022/05/31 02:02:39;;;;;;;2.43;1.40;;;;;;;;;;5098253;28;20241;-70
2022/05/31 02:05:07;;;;;;;2.90;1.80;;;;;;;;;;5098244;28;20325;-71
2022/05/31 02:07:35;;;;;;;2.07;1.80;;;;;;;;;;5098139;28;20255;-72
2022/05/31 02:10:05;;;;;;;3.90;1.90;;;;;;;;;;5097992;28;20229;-71
2022/05/31 02:12:36;;;;;;;4.07;1.50;;;;;;;;;;5097730;28;20205;-72
2022/05/31 02:15:04;;;;;;;3.20;1.87;;;;;;;;;;5098253;28;20212;-70
2022/05/31 02:17:32;;;;;;;4.63;1.60;;;;;;;;;;5098060;28;20198;-71
2022/05/31 02:20:00;;;;;;;3.43;2.03;;;;;;;;;;5097809;28;20703;-70
2022/05/31 02:22:30;;;;;;;1.97;1.67;;;;;;;;;;5098121;28;20214;-72
2022/05/31 02:24:58;;;;;;;2.37;2.00;;;;;;;;;;5097994;28;20209;-71
2022/05/31 02:27:27;;;;;;;2.77;1.47;;;;;;;;;;5097663;28;20261;-71
2022/05/31 02:29:55;;;;;;;2.30;1.60;;;;;;;;;;5094895;28;20265;-71
2022/05/31 02:32:24;;;;;;;1.70;1.40;;;;;;;;;;5098112;28;20205;-69
2022/05/31 02:34:52;;;;;;;2.93;1.33;;;;;;;;;;5097704;28;20245;-69
2022/05/31 02:37:20;;;;;;;1.87;1.40;;;;;;;;;;5097422;28;20755;-70
2022/05/31 02:39:48;;;;;;;2.43;1.50;;;;;;;;;;5097632;28;20236;-69
2022/05/31 02:42:17;;;;;;;1.60;1.30;;;;;;;;;;5097739;28;20237;-69
2022/05/31 02:44:46;;;;;;;2.30;1.20;;;;;;;;;;5100786;28;20212;-69
2022/05/31 02:47:15;;;;;;;1.53;1.43;;;;;;;;;;5102010;28;20271;-69
2022/05/31 02:49:46;;;;;;;1.73;1.10;;;;;;;;;;5101470;28;20290;-69
2022/05/31 02:52:14;;;;;;;1.63;1.37;;;;;;;;;;5102171;28;20204;-70
2022/05/31 02:54:42;;;;;;;2.43;1.40;;;;;;;;;;5101503;28;20209;-70
2022/05/31 02:57:10;;;;;;;1.93;1.40;;;;;;;;;;5101225;28;20736;-70
2022/05/31 02:59:38;;;;;;;3.30;1.53;;;;;;;;;;5101583;28;20687;-69
2022/05/31 03:02:08;;;;;;;1.30;1.20;;;;;;;;;;5101550;28;20660;-69
2022/05/31 03:04:36;;;;;;;3.27;1.33;;;;;;;;;;5101480;28;20205;-69
2022/05/31 03:07:04;;;;;;;3.63;1.47;;;;;;;;;;5101456;28;20264;-69
2022/05/31 03:09:32;;;;;;;2.13;1.40;;;;;;;;;;5101465;28;20267;-69
2022/05/31 03:12:02;;;;;;;2.20;1.33;;;;;;;;;;5101304;28;20236;-69
2022/05/31 03:14:32;;;;;;;1.93;1.30;;;;;;;;;;5101441;28;20202;-73
2022/05/31 03:17:01;;;;;;;1.93;1.40;;;;;;;;;;5099145;28;20218;-72
2022/05/31 03:19:34;;;;;;;3.00;1.43;;;;;;;;;;5101657;28;20205;-72
2022/05/31 03:22:04;;;;;;;1.40;1.30;;;;;;;;;;5099993;28;20233;-72
2022/05/31 03:24:35;;;;;;;2.20;1.40;;;;;;;;;;5102090;28;20233;-73
2022/05/31 03:27:04;;;;;;;4.17;1.60;;;;;;;;;;5106034;28;20264;-73
2022/05/31 03:29:32;;;;;;;2.33;1.67;;;;;;;;;;5106481;28;20268;-73
2022/05/31 03:32:00;;;;;;;4.37;1.60;;;;;;;;;;5101027;28;20233;-72
2022/05/31 03:34:28;;;;;;;3.13;1.60;;;;;;;;;;5100186;28;20684;-71
2022/05/31 03:36:58;;;;;;;3.87;1.80;;;;;;;;;;5100712;28;20236;-73
2022/05/31 03:39:26;;;;;;;3.03;1.30;;;;;;;;;;5101032;28;20241;-72
2022/05/31 03:41:54;;;;;;;4.80;2.10;;;;;;;;;;5100536;28;20212;-73
2022/05/31 03:44:22;;;;;;;2.00;1.90;;;;;;;;;;5100417;28;20529;-73
2022/05/31 03:46:50;;;;;;;4.40;1.77;;;;;;;;;;5100754;28;20237;-73
2022/05/31 03:49:18;;;;;;;3.30;1.93;;;;;;;;;;5100387;28;20291;-73
2022/05/31 03:51:46;;;;;;;3.50;1.73;;;;;;;;;;5087840;28;20302;-73
2022/05/31 03:54:15;;;;;;;6.17;2.03;;;;;;;;;;5099976;28;20205;-73
2022/05/31 03:56:43;;;;;;;3.97;2.47;;;;;;;;;;5100588;28;20230;-73
2022/05/31 03:59:11;;;;;;;5.27;2.40;;;;;;;;;;5100352;28;20210;-67
2022/05/31 04:01:39;;;;;;;7.03;2.73;;;;;;;;;;5097272;28;20248;-67
2022/05/31 04:04:08;;;;;;;4.83;2.20;;;;;;;;;;5093592;28;20202;-67
2022/05/31 04:06:36;;;;;;;4.57;2.60;;;;;;;;;;5110256;28;20227;-66
2022/05/31 04:09:04;;;;;;;4.77;2.67;;;;;;;;;;5101246;28;20217;-67
2022/05/31 04:11:34;;;;;;;7.43;2.40;;;;;;;;;;5096548;28;20253;-66
2022/05/31 04:14:02;;;;;;;7.13;2.87;;;;;;;;;;5096046;28;20229;-66
2022/05/31 04:16:30;;;;;;;2.73;2.03;;;;;;;;;;5099269;28;20662;-67
2022/05/31 04:18:58;;;;;;;2.20;1.80;;;;;;;;;;5099608;28;20204;-66
2022/05/31 04:21:26;;;;;;;3.30;1.37;;;;;;;;;;5091006;28;20230;-66
2022/05/31 04:24:02;;;;;;;3.50;1.97;;;;;;;;;;5099371;28;20229;-66
2022/05/31 04:26:31;;;;;;;5.07;2.20;;;;;;;;;;5099212;28;20290;-67
2022/05/31 04:29:01;;;;;;;8.47;1.97;;;;;;;;;;5099046;28;20198;-67
2022/05/31 04:31:29;;;;;;;2.90;2.10;;;;;;;;;;5099311;28;20306;-67
2022/05/31 04:33:57;;;;;;;3.60;1.80;;;;;;;;;;5099517;28;20197;-68
2022/05/31 04:36:25;;;;;;;2.57;2.23;;;;;;;;;;5098829;28;20768;-67
2022/05/31 04:38:53;;;;;;;5.37;1.73;;;;;;;;;;5100104;28;20193;-72
2022/05/31 04:41:24;;;;;;;3.57;1.97;;;;;;;;;;5100968;28;20236;-72
2022/05/31 04:43:53;;;;;;;2.37;1.80;;;;;;;;;;5111998;28;20205;-72
2022/05/31 04:46:23;;;;;;;4.33;1.80;;;;;;;;;;5105318;28;20260;-72
2022/05/31 04:48:53;;;;;;;4.23;2.20;;;;;;;;;;5099106;28;20320;-72
2022/05/31 04:51:21;;;;;;;5.13;2.20;;;;;;;;;;5098859;28;20266;-72
2022/05/31 04:53:49;;;;;;;4.23;2.43;;;;;;;;;;5099327;28;20227;-72
2022/05/31 04:56:19;;;;;;;7.00;1.87;;;;;;;;;;5099237;28;20256;-72
2022/05/31 04:58:49;;;;;;;4.03;1.90;;;;;;;;;;5105876;28;20720;-72
2022/05/31 05:01:18;;;;;;;6.40;2.10;;;;;;;;;;5119700;28;20201;-72
2022/05/31 05:03:47;;;;;;;2.33;1.40;;;;;;;;;;5119831;28;20209;-72
2022/05/31 05:06:16;;;;;;;5.87;2.30;;;;;;;;;;5118240;27;20259;-72
2022/05/31 05:08:45;;;;;;;6.57;2.00;;;;;;;;;;5119084;28;20707;-72
2022/05/31 05:11:13;;;;;;;6.00;2.33;;;;;;;;;;5118847;28;20232;-72
2022/05/31 05:13:42;;;;;;;5.43;2.20;;;;;;;;;;5118715;28;20642;-72
2022/05/31 05:16:11;;;;;;;3.87;2.10;;;;;;;;;;5108507;28;20229;-73
2022/05/31 05:18:39;;;;;;;10.87;2.50;;;;;;;;;;5096919;28;20215;-72
2022/05/31 05:21:10;;;;;;;3.07;1.77;;;;;;;;;;5099973;28;20234;-72
2022/05/31 05:23:38;;;;;;;4.03;1.73;;;;;;;;;;5098820;28;20224;-73
2022/05/31 05:26:06;;;;;;;2.97;2.10;;;;;;;;;;5092716;28;20274;-73
2022/05/31 05:31:22;;;;;;;4.03;1.80;;;;;;;;;;5099289;28;20257;-73
2022/05/31 05:33:50;;;;;;;4.93;1.70;;;;;;;;;;5099620;28;20205;-73
2022/05/31 05:36:20;;;;;;;3.67;1.90;;;;;;;;;;5098539;28;20217;-72
2022/05/31 05:38:48;;;;;;;4.70;2.27;;;;;;;;;;5098405;28;20259;-71
2022/05/31 05:41:18;;;;;;;4.87;2.23;;;;;;;;;;5098105;28;20630;-71
2022/05/31 05:43:46;;;;;;;4.63;2.40;;;;;;;;;;5092918;28;20237;-71
2022/05/31 05:46:14;;;;;;;2.70;1.97;;;;;;;;;;5094355;28;20225;-71
2022/05/31 05:48:43;;;;;;;4.40;2.40;;;;;;;;;;5097953;28;20696;-71
2022/05/31 05:51:12;;;;;;;4.03;1.80;;;;;;;;;;5097947;28;20371;-71
2022/05/31 05:53:42;;;;;;;2.47;1.90;;;;;;;;;;5098160;28;20237;-71
2022/05/31 05:56:11;;;;;;;5.83;2.10;;;;;;;;;;5097669;28;20255;-71
2022/05/31 05:58:39;;;;;;;5.07;2.03;;;;;;;;;;5097582;28;20240;-72
2022/05/31 06:01:08;;;;;;;3.57;2.07;;;;;;;;;;5098075;28;20229;-71
2022/05/31 06:03:39;;;;;;;5.47;2.40;;;;;;;;;;5097500;28;20255;-71
2022/05/31 06:06:08;;;;;;;2.83;2.03;;;;;;;;;;5098303;28;20249;-71
2022/05/31 06:08:42;;;;;;;6.97;2.47;;;;;;;;;;5098057;28;20198;-71
2022/05/31 06:11:13;;;;;;;6.30;2.30;;;;;;;;;;5098127;28;20712;-72
2022/05/31 06:13:44;;;;;;;6.50;2.23;;;;;;;;;;5096152;28;20361;-72
2022/05/31 06:16:12;;;;;;;5.10;2.60;;;;;;;;;;5098055;28;20265;-72
2022/05/31 06:18:41;;;;;;;4.03;2.73;;;;;;;;;;5096939;28;20567;-72
2022/05/31 06:21:09;;;;;;;6.60;2.97;;;;;;;;;;5097351;28;20222;-71
2022/05/31 06:23:38;;;;;;;9.83;2.30;;;;;;;;;;5094146;28;20229;-70
2022/05/31 06:26:09;;;;;;;7.43;2.80;;;;;;;;;;5098563;28;20231;-71
2022/05/31 06:28:38;;;;;;;3.23;2.57;;;;;;;;;;5093890;28;20208;-73
2022/05/31 06:31:06;;;;;;;10.60;3.57;;;;;;;;;;5098929;28;20256;-72
2022/05/31 06:33:34;;;;;;;3.10;2.20;;;;;;;;;;5096579;28;20221;-70
2022/05/31 06:36:02;;;;;;;5.33;2.53;;;;;;;;;;5099686;28;20229;-71
2022/05/31 06:38:30;;;;;;;3.50;2.70;;;;;;;;;;5096808;28;20202;-73
2022/05/31 06:40:58;;;;;;;4.70;2.20;;;;;;;;;;5099057;28;20241;-72
2022/05/31 06:43:27;;;;;;;3.07;1.90;;;;;;;;;;5097333;28;20206;-72
2022/05/31 06:45:56;;;;;;;2.97;1.87;;;;;;;;;;5099202;28;20257;-72
2022/05/31 06:48:24;;;;;;;2.50;2.00;;;;;;;;;;5096667;28;20283;-72
2022/05/31 06:50:53;;;;;;;2.73;1.60;;;;;;;;;;5083949;28;20221;-72
2022/05/31 06:58:55;;;;;;;3.33;2.73;;;;;;;;;;5098747;28;20193;-73
2022/05/31 07:01:30;;;;;;;4.20;2.80;;;;;;;;;;5096401;28;20189;-71
2022/05/31 07:03:59;;;;;;;4.13;2.07;;;;;;;;;;5096753;28;20270;-71
2022/05/31 07:06:27;;;;;;;2.80;2.07;;;;;;;;;;5097808;28;20759;-72
2022/05/31 07:08:55;;;;;;;2.40;2.17;;;;;;;;;;5096621;28;20202;-73
2022/05/31 07:11:23;;;;;;;2.73;2.07;;;;;;;;;;5099379;28;20267;-71
2022/05/31 07:13:52;;;;;;;4.07;1.90;;;;;;;;;;5100713;28;20622;-71
2022/05/31 07:16:20;;;;;;;3.57;1.77;;;;;;;;;;5093525;28;20243;-71
2022/05/31 07:18:50;;;;;;;4.37;1.63;;;;;;;;;;5095247;28;20210;-71
2022/05/31 07:21:23;;;;;;;3.53;2.97;;;;;;;;;;5095943;28;20232;-71
2022/05/31 07:23:53;;;;;;;3.27;2.20;;;;;;;;;;5096348;28;20251;-71
2022/05/31 07:26:22;;;;;;;4.17;2.40;;;;;;;;;;5096703;28;20232;-71
2022/05/31 07:29:05;;;;;;;7.37;2.23;;;;;;;;;;5098863;28;20194;-71
2022/05/31 07:31:35;;;;;;;2.93;2.13;;;;;;;;;;5100033;28;20259;-71
2022/05/31 07:34:14;;;;;;;3.60;2.00;;;;;;;;;;5100321;28;20634;-71
2022/05/31 07:36:42;;;;;;;3.37;2.10;;;;;;;;;;5102148;28;20279;-71
2022/05/31 07:39:11;;;;;;;2.63;1.60;;;;;;;;;;5102555;28;20236;-71
2022/05/31 07:41:39;;;;;;;2.53;2.30;;;;;;;;;;5102374;28;20188;-71
2022/05/31 07:44:08;;;;;;;5.60;2.37;;;;;;;;;;5100271;28;20251;-71
2022/05/31 07:46:36;;;;;;;3.80;2.30;;;;;;;;;;5100931;28;20253;-72
2022/05/31 07:49:04;;;;;;;3.80;2.10;;;;;;;;;;5103085;28;20637;-72
2022/05/31 07:51:34;;;;;;;4.93;2.10;;;;;;;;;;5103290;28;20248;-71
2022/05/31 07:54:02;;;;;;;3.63;1.80;;;;;;;;;;5102103;28;20210;-71
2022/05/31 07:56:30;;;;;;;3.03;2.20;;;;;;;;;;5101981;28;20221;-71
2022/05/31 07:58:59;;;;;;;2.53;2.00;;;;;;;;;;5102727;28;20607;-71
2022/05/31 08:01:27;;;;;;;4.03;2.20;;;;;;;;;;5099266;28;20268;-71
2022/05/31 08:03:56;;;;;;;2.30;1.90;;;;;;;;;;5099876;28;20372;-71
2022/05/31 08:06:25;;;;;;;3.00;2.10;;;;;;;;;;5103833;28;20225;-72
2022/05/31 08:08:54;;;;;;;3.43;1.83;;;;;;;;;;5115965;28;20201;-72
2022/05/31 08:11:24;;;;;;;4.53;1.93;;;;;;;;;;5100108;28;20210;-72
2022/05/31 08:13:53;;;;;;;2.33;2.10;;;;;;;;;;5099273;28;20225;-72
2022/05/31 08:16:22;;;;;;;3.73;2.17;;;;;;;;;;5099980;28;20229;-72
2022/05/31 08:18:50;;;;;;;4.43;2.20;;;;;;;;;;5100332;28;20677;-72
2022/05/31 08:21:19;;;;;;;3.97;2.20;;;;;;;;;;5098486;28;20201;-71
2022/05/31 08:23:48;;;;;;;4.17;1.97;;;;;;;;;;5097144;28;20197;-71
2022/05/31 08:26:21;;;;;;;3.97;2.57;;;;;;;;;;5087088;28;20240;-72
2022/05/31 08:28:49;;;;;;;4.60;2.50;;;;;;;;;;5092048;28;20213;-71
2022/05/31 08:31:19;;;;;;;3.77;2.23;;;;;;;;;;5099586;28;20205;-71
2022/05/31 08:33:48;;;;;;;4.83;2.33;;;;;;;;;;5101598;28;20320;-72
2022/05/31 08:36:16;;;;;;;6.00;1.93;;;;;;;;;;5099447;28;20221;-72
2022/05/31 08:38:44;;;;;;;4.10;1.80;;;;;;;;;;5100101;28;20251;-72
2022/05/31 08:41:17;;;;;;;2.63;1.70;;;;;;;;;;5098304;28;20293;-72
2022/05/31 08:43:53;;;;;;;2.87;2.20;;;;;;;;;;5098998;28;20626;-72
2022/05/31 08:46:25;;;;;;;3.20;1.90;;;;;;;;;;5099460;28;20221;-72
2022/05/31 08:48:57;;;;;;;2.23;1.50;;;;;;;;;;5098918;28;20244;-72
2022/05/31 08:57:04;;;;;;;4.53;1.60;;;;;;;;;;5097491;28;20650;-72
2022/05/31 08:59:35;;;;;;;6.33;2.43;;;;;;;;;;5098598;28;20243;-71
2022/05/31 09:02:05;;;;;;;5.63;2.40;;;;;;;;;;5099540;28;20205;-72
2022/05/31 09:04:40;;;;;;;7.73;2.47;;;;;;;;;;5102960;28;20204;-72
2022/05/31 09:07:09;;;;;;;5.00;1.87;;;;;;;;;;5119396;28;20640;-72
2022/05/31 09:09:39;;;;;;;3.93;1.70;;;;;;;;;;5108710;28;20783;-72
2022/05/31 09:12:14;;;;;;;3.47;2.00;;;;;;;;;;5098633;28;20551;-72
2022/05/31 09:14:50;;;;;;;1.73;1.60;;;;;;;;;;5096360;28;20216;-71
2022/05/31 09:17:22;;;;;;;2.03;1.47;;;;;;;;;;5098294;28;20213;-72
2022/05/31 09:19:56;;;;;;;3.37;1.20;;;;;;;;;;5099826;28;20232;-72
2022/05/31 09:22:25;;;;;;;3.80;1.60;;;;;;;;;;5097777;28;20266;-72
2022/05/31 09:24:53;;;;;;;4.07;1.80;;;;;;;;;;5100184;28;20197;-72
2022/05/31 09:27:23;;;;;;;2.13;1.63;;;;;;;;;;5097201;28;20232;-71
2022/05/31 09:30:03;;;;;;;4.23;1.90;;;;;;;;;;5097825;28;20621;-70
2022/05/31 09:32:40;;;;;;;3.57;1.60;;;;;;;;;;5095240;28;20213;-71
2022/05/31 09:35:13;;;;;;;3.50;1.57;;;;;;;;;;5099166;28;20942;-70
2022/05/31 09:37:50;;;;;;;5.17;1.63;;;;;;;;;;5098287;28;20193;-70
2022/05/31 09:40:39;;;;;;;2.43;1.73;;;;;;;;;;5098617;28;20204;-69
2022/05/31 09:43:09;;;;;;;2.13;1.77;;;;;;;;;;5094637;28;20225;-71
2022/05/31 09:45:40;;;;;;;2.70;1.50;;;;;;;;;;5097736;28;20603;-68
2022/05/31 09:48:08;;;;;;;3.03;1.57;;;;;;;;;;5099211;28;20712;-70
2022/05/31 09:50:36;;;;;;;3.20;1.80;;;;;;;;;;5100129;28;20210;-68
2022/05/31 09:57:05;;;;;;;3.67;1.70;;;;;;;;;;5099660;28;20308;-68
2022/05/31 09:58:40;;;;;;;7.70;2.57;;;;;;;;;;5097997;28;20197;-67
2022/05/31 10:01:25;;;;;;;5.77;2.53;;;;;;;;;;5099541;28;20236;-68
2022/05/31 10:03:55;;;;;;;4.50;2.37;;;;;;;;;;5098493;28;20436;-66
2022/05/31 10:06:24;;;;;;;6.33;2.40;;;;;;;;;;5102462;28;20256;-68
2022/05/31 10:08:54;;;;;;;3.97;2.30;;;;;;;;;;5095847;28;20209;-67
2022/05/31 10:11:23;;;;;;;6.40;3.07;;;;;;;;;;5095690;28;20205;-66
2022/05/31 10:13:56;;;;;;;5.10;2.30;;;;;;;;;;5115489;28;20227;-66
2022/05/31 10:16:26;;;;;;;4.07;2.50;;;;;;;;;;5107889;28;20217;-66
2022/05/31 10:18:56;;;;;;;5.33;2.13;;;;;;;;;;5097872;28;20231;-67
2022/05/31 10:21:32;;;;;;;2.57;2.07;;;;;;;;;;5097868;28;20232;-66
2022/05/31 10:24:07;;;;;;;4.10;2.40;;;;;;;;;;5097168;28;20224;-71
2022/05/31 10:26:38;;;;;;;4.17;2.30;;;;;;;;;;5094554;28;20243;-69
2022/05/31 10:29:08;;;;;;;4.77;2.43;;;;;;;;;;5098224;28;20201;-70
2022/05/31 10:31:38;;;;;;;5.13;2.50;;;;;;;;;;5097523;28;20680;-69
2022/05/31 10:34:08;;;;;;;2.63;2.07;;;;;;;;;;5097641;28;20255;-66
2022/05/31 10:36:48;;;;;;;5.20;2.20;;;;;;;;;;5097146;28;20237;-65
2022/05/31 10:39:19;;;;;;;3.63;2.70;;;;;;;;;;5097671;28;20202;-65
2022/05/31 10:41:49;;;;;;;4.00;2.57;;;;;;;;;;5097270;28;20209;-65
2022/05/31 10:44:26;;;;;;;5.07;2.77;;;;;;;;;;5096546;28;20258;-65
2022/05/31 10:46:57;;;;;;;2.93;2.73;;;;;;;;;;5097207;28;20285;-65
2022/05/31 10:49:25;;;;;;;5.40;2.63;;;;;;;;;;5099098;28;20265;-65
2022/05/31 10:51:59;;;;;;;3.83;2.77;;;;;;;;;;5097116;28;20197;-64
2022/05/31 10:54:34;;;;;;;5.03;3.27;;;;;;;;;;5097713;28;20225;-64
2022/05/31 10:57:10;;;;;;;3.70;2.60;;;;;;;;;;5088616;28;20224;-65
2022/05/31 10:59:45;;;;;;;4.77;2.20;;;;;;;;;;5096940;28;20197;-68
2022/05/31 11:02:36;;;;;;;4.43;2.23;;;;;;;;;;5096526;28;20208;-68
2022/05/31 11:05:06;;;;;;;4.83;2.33;;;;;;;;;;5098990;28;20204;-67
2022/05/31 11:07:42;;;;;;;6.07;2.80;;;;;;;;;;5103932;28;20220;-65
2022/05/31 11:13:28;;;;;;;3.60;2.60;;;;;;;;;;5110328;28;20260;-64
2022/05/31 11:16:00;;;;;;;3.60;3.27;;;;;;;;;;5110667;28;20711;-66
2022/05/31 11:18:39;;;;;;;4.20;3.00;;;;;;;;;;5101985;28;20222;-64
2022/05/31 11:21:13;;;;;;;3.90;2.83;;;;;;;;;;5107848;28;20228;-65
2022/05/31 11:23:49;;;;;;;4.43;3.40;;;;;;;;;;5108647;28;20598;-64
2022/05/31 11:26:24;;;;;;;6.90;3.63;;;;;;;;;;5108516;28;20304;-63
2022/05/31 11:29:19;;;;;;;6.03;2.97;;;;;;;;;;5108442;28;20201;-65
2022/05/31 11:31:54;;;;;;;4.63;3.40;;;;;;;;;;5107467;28;20193;-63
2022/05/31 11:34:31;;;;;;;8.03;4.10;;;;;;;;;;5106213;28;20223;-65
2022/05/31 11:37:09;;;;;;;5.40;3.37;;;;;;;;;;5108281;28;20279;-65
2022/05/31 11:39:43;;;;;;;5.33;3.90;;;;;;;;;;5109996;28;20197;-65
2022/05/31 11:42:22;;;;;;;4.20;3.73;;;;;;;;;;5108446;28;20193;-62
2022/05/31 11:45:02;;;;;;;3.97;2.90;;;;;;;;;;5108478;27;20224;-69
2022/05/31 11:47:46;;;;;;;6.13;3.50;;;;;;;;;;5109617;28;20243;-68
2022/05/31 11:50:20;;;;;;;4.00;3.03;;;;;;;;;;5098280;28;20235;-73
2022/05/31 11:53:03;;;;;;;6.30;3.33;;;;;;;;;;5109777;28;20193;-73
2022/05/31 11:55:32;;;;;;;6.37;3.10;;;;;;;;;;5109431;28;20271;-74
2022/05/31 11:58:12;;;;;;;5.77;3.07;;;;;;;;;;5108898;28;20201;-74
2022/05/31 12:00:44;;;;;;;9.13;3.33;;;;;;;;;;5106228;28;20224;-73
2022/05/31 12:03:14;;;;;;;5.20;3.00;;;;;;;;;;5110233;28;20621;-74
2022/05/31 12:05:46;;;;;;;7.67;3.20;;;;;;;;;;5109415;28;20217;-75
2022/05/31 12:08:17;;;;;;;4.10;3.70;;;;;;;;;;5108056;28;20225;-73
2022/05/31 12:10:47;;;;;;;5.13;3.30;;;;;;;;;;5109703;28;20228;-75
2022/05/31 12:13:16;;;;;;;6.57;3.53;;;;;;;;;;5104783;28;20634;-73
2022/05/31 12:15:45;;;;;;;4.10;3.13;;;;;;;;;;5106645;28;20221;-73
2022/05/31 12:18:19;;;;;;;8.03;3.33;;;;;;;;;;5107993;28;20283;-75
2022/05/31 12:20:52;;;;;;;6.50;3.20;;;;;;;;;;5108944;28;20205;-75
2022/05/31 12:23:24;;;;;;;6.33;3.60;;;;;;;;;;5106568;28;20205;-75
2022/05/31 12:25:53;;;;;;;9.27;3.63;;;;;;;;;;5107490;27;20256;-73
2022/05/31 12:28:24;;;;;;;8.80;4.03;;;;;;;;;;5112516;28;20236;-73
2022/05/31 12:30:56;;;;;;;8.07;3.93;;;;;;;;;;5098855;28;20929;-74
2022/05/31 12:33:31;;;;;;;8.97;3.60;;;;;;;;;;5099108;28;20205;-72
2022/05/31 12:36:01;;;;;;;6.97;3.13;;;;;;;;;;5099048;28;20252;-72
2022/05/31 12:38:29;;;;;;;4.47;3.60;;;;;;;;;;5099359;28;20201;-73
2022/05/31 12:40:57;;;;;;;6.40;3.93;;;;;;;;;;5098614;28;20658;-63
2022/05/31 12:43:40;;;;;;;5.17;3.47;;;;;;;;;;5099264;28;20210;-64
2022/05/31 12:46:40;;;;;;;3.23;2.40;;;;;;;;;;5097253;28;20573;-64
2022/05/31 12:49:10;;;;;;;5.40;2.43;;;;;;;;;;5036843;28;20235;-65
2022/05/31 12:51:39;;;;;;;4.27;2.53;;;;;;;;;;5086756;28;20248;-66
2022/05/31 12:54:10;;;;;;;2.10;1.90;;;;;;;;;;5099404;28;20255;-67
2022/05/31 12:56:53;;;;;;;6.40;2.67;;;;;;;;;;5099332;28;20260;-67
2022/05/31 12:59:42;;;;;;;6.37;2.53;;;;;;;;;;5097022;28;20219;-66
2022/05/31 13:02:21;;;;;;;2.10;1.93;;;;;;;;;;5094499;28;20201;-66
2022/05/31 13:04:54;;;;;;;4.17;2.00;;;;;;;;;;5105306;28;20221;-66
2022/05/31 13:07:40;;;;;;;2.93;1.70;;;;;;;;;;5098507;28;20214;-65
2022/05/31 13:10:27;;;;;;;5.93;2.57;;;;;;;;;;5098382;28;20232;-66
2022/05/31 13:21:17;;;;;;;3.93;3.40;;;;;;;;;;5088318;28;20245;-66
2022/05/31 13:24:13;;;;;;;3.60;2.50;;;;;;;;;;5096841;28;20289;-64
2022/05/31 13:26:42;;;;;;;3.20;2.50;;;;;;;;;;5094282;28;20308;-66
2022/05/31 13:29:10;;;;;;;3.00;2.10;;;;;;;;;;5105814;28;20209;-64
2022/05/31 13:31:46;;;;;;;6.27;2.23;;;;;;;;;;5094819;28;20255;-65
2022/05/31 13:34:24;;;;;;;5.20;2.20;;;;;;;;;;5098505;28;20557;-64
2022/05/31 13:36:52;;;;;;;4.53;2.40;;;;;;;;;;5099438;28;20304;-64
2022/05/31 13:39:21;;;;;;;2.87;2.40;;;;;;;;;;5097754;28;20208;-64
2022/05/31 13:41:50;;;;;;;3.10;1.80;;;;;;;;;;5098056;28;20605;-65
2022/05/31 13:44:20;;;;;;;4.63;1.70;;;;;;;;;;5098006;28;20229;-64
2022/05/31 13:46:48;;;;;;;4.77;1.97;;;;;;;;;;5098087;28;20225;-64
2022/05/31 13:49:20;;;;;;;3.47;2.00;;;;;;;;;;5097742;28;20276;-64
2022/05/31 13:51:51;;;;;;;1.90;1.80;;;;;;;;;;5097406;28;20209;-72
2022/05/31 13:54:22;;;;;;;3.67;1.77;;;;;;;;;;5097931;28;20205;-71
2022/05/31 13:56:54;;;;;;;2.53;2.10;;;;;;;;;;5095986;28;20573;-70
2022/05/31 13:59:33;;;;;;;2.20;2.00;;;;;;;;;;5103995;28;20205;-70
2022/05/31 14:02:03;;;;;;;3.03;2.20;;;;;;;;;;5106077;28;20204;-70
2022/05/31 14:04:34;;;;;;;3.50;2.43;;;;;;;;;;5104094;28;20206;-73
2022/05/31 14:07:04;;;;;;;3.47;2.47;;;;;;;;;;5099674;28;20332;-73
2022/05/31 14:09:36;;;;;;;3.10;2.53;;;;;;;;;;5098972;28;20201;-70
2022/05/31 14:12:05;;;;;;;4.00;2.53;;;;;;;;;;5098125;28;20248;-72
2022/05/31 14:14:35;;;;;;;3.53;2.37;;;;;;;;;;5097615;28;20232;-73
2022/05/31 14:17:04;;;;;;;3.10;2.83;;;;;;;;;;5096801;28;20579;-73
2022/05/31 14:19:34;;;;;;;3.23;2.90;;;;;;;;;;5097648;28;20633;-74
2022/05/31 14:22:12;;;;;;;5.53;3.00;;;;;;;;;;5098344;28;20205;-74
2022/05/31 14:24:41;;;;;;;6.70;3.50;;;;;;;;;;5098294;28;20671;-73
2022/05/31 14:27:10;;;;;;;6.40;3.87;;;;;;;;;;5103143;28;20578;-74
2022/05/31 14:29:39;;;;;;;7.83;4.17;;;;;;;;;;5106486;28;20574;-74
2022/05/31 14:32:13;;;;;;;8.37;3.57;;;;;;;;;;5097205;28;20193;-74
2022/05/31 14:34:43;;;;;;;7.13;3.43;;;;;;;;;;5096620;28;20223;-72
2022/05/31 14:37:12;;;;;;;8.90;3.37;;;;;;;;;;5097886;28;20264;-73
2022/05/31 14:39:46;;;;;;;5.77;4.00;;;;;;;;;;5097078;28;20292;-72
2022/05/31 14:42:18;;;;;;;5.40;3.10;;;;;;;;;;5097376;28;20205;-72
2022/05/31 14:44:47;;;;;;;5.53;3.10;;;;;;;;;;5097348;28;20236;-72
2022/05/31 14:47:25;;;;;;;6.27;3.03;;;;;;;;;;5097428;28;20245;-71
2022/05/31 14:50:05;;;;;;;5.93;3.80;;;;;;;;;;5084036;28;20261;-71
2022/05/31 14:52:40;;;;;;;5.93;3.70;;;;;;;;;;5097443;28;20206;-71
2022/05/31 14:55:11;;;;;;;7.90;3.87;;;;;;;;;;5097061;28;20254;-71
2022/05/31 15:00:25;;;;;;;4.90;3.40;;;;;;;;;;5117688;28;20228;-71
2022/05/31 15:02:56;;;;;;;3.83;3.30;;;;;;;;;;5117261;28;20253;-71
2022/05/31 15:05:25;;;;;;;6.40;3.73;;;;;;;;;;5117779;28;20277;-70
2022/05/31 15:07:54;;;;;;;6.13;3.70;;;;;;;;;;5117776;28;20205;-69
2022/05/31 15:10:27;;;;;;;5.70;3.60;;;;;;;;;;5117542;28;20245;-69
2022/05/31 15:21:16;;;;;;;3.90;3.50;;;;;;;;;;5097277;28;20574;-69
2022/05/31 15:23:44;;;;;;;5.70;3.07;;;;;;;;;;5096482;28;20198;-71
2022/05/31 15:26:15;;;;;;;4.13;3.43;;;;;;;;;;5099158;28;20267;-70
2022/05/31 15:28:44;;;;;;;3.83;3.07;;;;;;;;;;5095031;28;20718;-71
2022/05/31 15:31:33;;;;;;;6.97;3.50;;;;;;;;;;5095515;28;20671;-70
2022/05/31 15:34:21;;;;;;;5.17;3.30;;;;;;;;;;5095598;28;20728;-72
2022/05/31 15:36:50;;;;;;;4.80;3.03;;;;;;;;;;5096530;28;20278;-72
2022/05/31 15:39:19;;;;;;;4.07;3.30;;;;;;;;;;5096691;28;20669;-71
2022/05/31 15:41:48;;;;;;;4.87;2.70;;;;;;;;;;5096362;28;20206;-72
2022/05/31 15:44:16;;;;;;;3.00;2.60;;;;;;;;;;5096660;28;20201;-71